Time;durP1;ratioP1;P1;durP2;ratioP2;P2;SDS_P1;SDS_P2;PMS_P1;PMS_P2;Temp;Humidity;BMP_temperature;BMP_pressure;BME280_temperature;BME280_humidity;BME280_pressure;Samples;Min_cycle;Max_cycle;Signal;HPM_P1;HPM_P2
2024/04/06 00:00:14;;;;;;;13.90;5.00;;;;;;;13.37;98.07;100229.16;105543;1269;102635;-86
2024/04/06 00:03:21;;;;;;;11.00;4.80;;;;;;;13.35;98.91;100221.39;105484;1270;102499;-85
2024/04/06 00:06:07;;;;;;;8.80;4.90;;;;;;;13.34;99.23;100208.73;105531;1269;98974;-85
2024/04/06 00:08:53;;;;;;;10.80;4.90;;;;;;;13.33;99.49;100204.02;105598;1270;97981;-85
2024/04/06 00:11:39;;;;;;;10.40;4.60;;;;;;;13.32;99.79;100207.90;105465;1270;97899;-86
2024/04/06 00:14:25;;;;;;;9.90;4.80;;;;;;;13.29;100.00;100217.20;105515;1269;101356;-85
2024/04/06 00:17:11;;;;;;;12.00;4.10;;;;;;;13.26;100.00;100222.59;105454;1265;99306;-86
2024/04/06 00:19:56;;;;;;;8.60;4.10;;;;;;;13.27;100.00;100239.75;105523;1269;98986;-86
2024/04/06 00:22:42;;;;;;;13.90;4.90;;;;;;;13.26;100.00;100251.55;105387;1267;98029;-86
2024/04/06 00:25:29;;;;;;;13.00;5.50;;;;;;;13.23;100.00;100251.19;105493;1265;98504;-85
2024/04/06 00:28:14;;;;;;;9.30;5.00;;;;;;;13.19;100.00;100246.48;105631;1270;101946;-85
2024/04/06 00:31:00;;;;;;;11.90;4.60;;;;;;;13.19;100.00;100248.85;105516;1270;99060;-84
2024/04/06 00:33:46;;;;;;;9.30;5.30;;;;;;;13.19;100.00;100249.81;105436;1266;98928;-87
2024/04/06 00:36:32;;;;;;;8.20;4.70;;;;;;;13.20;100.00;100260.81;105660;1270;98076;-87
2024/04/06 00:39:18;;;;;;;11.20;5.20;;;;;;;13.18;100.00;100266.02;105564;1270;98438;-86
2024/04/06 00:42:04;;;;;;;13.30;5.40;;;;;;;13.20;100.00;100273.37;105830;1269;101352;-85
2024/04/06 00:44:51;;;;;;;10.00;5.20;;;;;;;13.21;100.00;100286.66;105596;1270;99150;-86
2024/04/06 00:47:37;;;;;;;12.40;5.40;;;;;;;13.21;100.00;100293.81;105515;1269;97968;-85
2024/04/06 00:50:23;;;;;;;11.90;5.10;;;;;;;13.20;100.00;100296.59;105541;1269;97921;-85
2024/04/06 00:53:09;;;;;;;12.60;5.60;;;;;;;13.20;100.00;100300.94;105393;1264;98412;-85
2024/04/06 00:55:54;;;;;;;11.90;5.30;;;;;;;13.18;100.00;100301.73;105659;1264;101361;-83
2024/04/06 00:58:41;;;;;;;10.70;5.60;;;;;;;13.17;100.00;100297.97;105554;1269;100167;-85
2024/04/06 01:01:28;;;;;;;10.30;5.10;;;;;;;13.15;100.00;100286.72;105318;1270;98341;-84
2024/04/06 01:04:13;;;;;;;12.90;5.90;;;;;;;13.14;100.00;100275.30;105393;1267;97976;-86
2024/04/06 01:06:59;;;;;;;14.80;5.50;;;;;;;13.13;100.00;100269.70;105497;1270;97984;-86
2024/04/06 01:09:46;;;;;;;12.10;6.30;;;;;;;13.13;100.00;100264.00;105406;1270;102788;-86
2024/04/06 01:12:31;;;;;;;13.20;6.70;;;;;;;13.12;100.00;100257.59;105418;1264;99150;-84
2024/04/06 01:15:17;;;;;;;9.80;6.00;;;;;;;13.11;100.00;100245.81;105330;1264;98997;-85
2024/04/06 01:18:03;;;;;;;9.90;4.90;;;;;;;13.12;100.00;100230.90;105493;1270;97979;-86
2024/04/06 01:20:51;;;;;;;13.70;5.40;;;;;;;13.14;100.00;100223.74;105575;1270;97968;-85
2024/04/06 01:23:36;;;;;;;12.70;5.20;;;;;;;13.15;100.00;100217.83;105788;1265;101435;-86
2024/04/06 01:26:23;;;;;;;9.60;4.70;;;;;;;13.16;100.00;100216.83;105438;1269;100374;-85
2024/04/06 01:29:08;;;;;;;8.90;5.20;;;;;;;13.17;100.00;100218.94;105637;1267;99001;-84
2024/04/06 01:31:55;;;;;;;9.50;4.70;;;;;;;13.15;100.00;100231.82;105533;1270;97899;-84
2024/04/06 01:34:41;;;;;;;11.40;5.90;;;;;;;13.14;100.00;100228.42;105500;1264;98993;-85
2024/04/06 01:37:27;;;;;;;12.30;5.50;;;;;;;13.13;100.00;100225.15;105526;1268;101261;-85
2024/04/06 01:40:14;;;;;;;8.90;5.70;;;;;;;13.13;100.00;100226.02;105518;1264;100407;-85
2024/04/06 01:42:59;;;;;;;10.80;6.20;;;;;;;13.13;100.00;100230.81;105469;1271;98066;-85
2024/04/06 01:45:45;;;;;;;13.10;6.70;;;;;;;13.13;100.00;100225.11;105455;1263;98014;-85
2024/04/06 01:48:31;;;;;;;13.10;5.60;;;;;;;13.12;100.00;100216.77;105554;1269;97809;-86
2024/04/06 01:51:17;;;;;;;11.10;6.00;;;;;;;13.12;100.00;100225.20;105685;1269;102588;-84
2024/04/06 01:54:03;;;;;;;15.70;5.80;;;;;;;13.12;100.00;100228.42;105660;1264;101296;-85
2024/04/06 01:56:50;;;;;;;10.40;5.60;;;;;;;13.12;100.00;100232.98;105482;1265;97986;-84
2024/04/06 01:59:39;;;;;;;8.80;5.20;;;;;;;13.12;100.00;100234.05;105569;1264;97894;-85
2024/04/06 02:02:25;;;;;;;9.80;5.10;;;;;;;13.11;100.00;100230.53;105485;1264;97959;-85
2024/04/06 02:05:10;;;;;;;12.40;5.40;;;;;;;13.11;100.00;100234.46;105337;1273;101979;-85
2024/04/06 02:07:56;;;;;;;13.10;6.80;;;;;;;13.12;100.00;100239.22;105435;1270;100413;-86
2024/04/06 02:10:42;;;;;;;9.90;4.80;;;;;;;13.11;100.00;100239.31;105351;1273;98010;-85
2024/04/06 02:13:29;;;;;;;8.00;4.80;;;;;;;13.10;100.00;100237.70;105365;1270;97978;-85
2024/04/06 02:16:16;;;;;;;10.90;5.00;;;;;;;13.09;100.00;100241.52;105369;1273;98780;-85
2024/04/06 02:19:02;;;;;;;6.90;4.30;;;;;;;13.06;100.00;100249.34;105591;1265;101372;-84
2024/04/06 02:21:48;;;;;;;10.40;4.80;;;;;;;13.05;100.00;100255.49;105670;1269;100437;-85
2024/04/06 02:24:35;;;;;;;7.60;4.70;;;;;;;13.04;100.00;100259.01;105339;1264;97897;-84
2024/04/06 02:27:22;;;;;;;9.40;4.30;;;;;;;13.03;100.00;100261.10;105417;1275;97940;-85
2024/04/06 02:30:08;;;;;;;8.40;4.60;;;;;;;13.00;100.00;100266.70;105367;1264;97985;-84
2024/04/06 02:32:53;;;;;;;11.30;4.40;;;;;;;12.97;100.00;100268.19;105486;1269;102102;-84
2024/04/06 02:35:39;;;;;;;6.80;4.10;;;;;;;12.94;100.00;100273.95;105408;1270;100028;-85
2024/04/06 02:38:25;;;;;;;6.30;4.20;;;;;;;12.92;100.00;100280.40;105576;1264;97993;-84
2024/04/06 02:41:11;;;;;;;5.90;3.70;;;;;;;12.88;100.00;100286.86;105415;1264;97979;-85
2024/04/06 02:43:57;;;;;;;8.00;3.50;;;;;;;12.82;100.00;100288.45;105512;1264;98409;-86
2024/04/06 02:46:43;;;;;;;5.80;3.50;;;;;;;12.77;100.00;100291.96;105461;1264;101980;-85
2024/04/06 02:49:28;;;;;;;6.80;3.20;;;;;;;12.73;100.00;100289.08;105497;1270;99224;-85
2024/04/06 02:52:14;;;;;;;7.00;3.00;;;;;;;12.71;100.00;100289.39;105635;1264;98327;-85
2024/04/06 02:54:59;;;;;;;5.10;3.00;;;;;;;12.69;100.00;100294.54;105384;1264;97989;-85
2024/04/06 02:57:46;;;;;;;9.50;3.60;;;;;;;12.68;100.00;100298.21;105447;1270;98429;-85
2024/04/06 03:00:32;;;;;;;6.00;3.40;;;;;;;12.67;100.00;100298.70;105492;1264;101421;-86
2024/04/06 03:03:17;;;;;;;8.70;3.60;;;;;;;12.66;100.00;100299.61;105565;1269;100079;-85
2024/04/06 03:06:03;;;;;;;7.50;4.00;;;;;;;12.64;100.00;100299.83;105345;1269;98874;-85
2024/04/06 03:08:49;;;;;;;7.80;5.40;;;;;;;12.63;100.00;100301.27;105412;1270;99318;-85
2024/04/06 03:11:35;;;;;;;6.20;4.80;;;;;;;12.61;100.00;100299.53;105545;1264;98541;-84
2024/04/06 03:14:21;;;;;;;10.00;4.20;;;;;;;12.60;100.00;100300.89;105633;1264;102553;-85
2024/04/06 03:17:07;;;;;;;6.60;4.00;;;;;;;12.59;100.00;100304.00;105665;1270;100429;-84
2024/04/06 03:19:53;;;;;;;7.90;3.90;;;;;;;12.57;100.00;100307.30;105594;1264;98424;-85
2024/04/06 03:22:39;;;;;;;7.00;4.50;;;;;;;12.56;100.00;100315.33;105357;1264;98145;-85
2024/04/06 03:25:26;;;;;;;7.40;3.80;;;;;;;12.54;100.00;100318.25;105399;1270;98453;-86
2024/04/06 03:28:12;;;;;;;7.90;4.60;;;;;;;12.52;100.00;100320.86;105528;1270;101394;-86
2024/04/06 03:30:58;;;;;;;8.00;4.70;;;;;;;12.49;100.00;100321.64;105593;1270;100571;-85
2024/04/06 03:33:44;;;;;;;6.50;4.00;;;;;;;12.47;100.00;100325.81;105579;1270;98112;-85
2024/04/06 03:36:30;;;;;;;8.00;3.90;;;;;;;12.47;100.00;100323.70;105543;1269;97973;-85
2024/04/06 03:39:18;;;;;;;6.80;4.20;;;;;;;12.44;100.00;100328.95;105529;1270;98494;-85
2024/04/06 03:42:04;;;;;;;8.70;4.90;;;;;;;12.42;100.00;100329.23;105509;1264;101411;-85
2024/04/06 03:44:49;;;;;;;9.40;4.40;;;;;;;12.40;100.00;100332.50;105444;1264;99169;-85
2024/04/06 03:47:35;;;;;;;6.80;4.30;;;;;;;12.37;100.00;100335.70;105330;1264;98113;-85
2024/04/06 03:50:21;;;;;;;8.50;5.10;;;;;;;12.35;100.00;100338.89;105390;1269;98091;-85
2024/04/06 03:53:07;;;;;;;7.60;4.70;;;;;;;12.32;100.00;100341.63;105366;1270;97765;-85
2024/04/06 03:55:52;;;;;;;7.40;4.80;;;;;;;12.29;100.00;100351.66;105440;1264;101433;-85
2024/04/06 03:58:38;;;;;;;8.20;4.80;;;;;;;12.26;100.00;100353.85;105499;1264;100740;-85
2024/04/06 04:01:23;;;;;;;8.50;5.10;;;;;;;12.23;100.00;100358.34;105819;1264;98076;-84
2024/04/06 04:04:10;;;;;;;6.60;4.70;;;;;;;12.23;100.00;100365.20;105458;1266;97971;-85
2024/04/06 04:06:56;;;;;;;8.20;4.50;;;;;;;12.22;100.00;100372.10;105580;1269;98002;-85
2024/04/06 04:09:41;;;;;;;9.50;5.00;;;;;;;12.21;100.00;100374.04;105294;1266;110673;-84
2024/04/06 04:12:28;;;;;;;9.90;5.50;;;;;;;12.19;100.00;100375.39;105303;1270;100286;-86
2024/04/06 04:15:14;;;;;;;10.20;4.40;;;;;;;12.15;100.00;100383.07;105482;1264;97962;-85
2024/04/06 04:18:00;;;;;;;4.90;4.20;;;;;;;12.12;100.00;100385.48;105435;1264;97981;-85
2024/04/06 04:20:46;;;;;;;7.90;4.20;;;;;;;12.10;100.00;100389.15;105569;1268;98426;-85
2024/04/06 04:23:31;;;;;;;12.80;4.10;;;;;;;12.07;100.00;100396.14;105705;1264;102160;-84
2024/04/06 04:26:18;;;;;;;6.70;4.20;;;;;;;12.05;100.00;100399.84;105362;1273;100390;-86
2024/04/06 04:29:04;;;;;;;7.40;3.50;;;;;;;12.03;100.00;100405.45;105343;1267;99020;-85
2024/04/06 04:31:49;;;;;;;11.80;4.40;;;;;;;12.02;100.00;100407.41;105491;1269;98029;-86
2024/04/06 04:34:35;;;;;;;7.20;3.70;;;;;;;12.00;100.00;100409.60;105531;1264;98485;-84
2024/04/06 04:37:21;;;;;;;6.20;4.40;;;;;;;11.98;100.00;100410.47;105623;1264;101201;-86
2024/04/06 04:40:09;;;;;;;11.30;4.50;;;;;;;11.96;100.00;100415.04;105427;1265;99142;-86
2024/04/06 04:42:54;;;;;;;8.70;4.70;;;;;;;11.94;100.00;100416.73;105431;1270;99131;-86
2024/04/06 04:45:41;;;;;;;9.60;5.20;;;;;;;11.92;100.00;100421.64;105333;1271;98004;-86
2024/04/06 04:49:01;;;;;;;8.40;5.00;;;;;;;11.90;100.00;100421.30;105338;1264;98734;-87
2024/04/06 04:51:46;;;;;;;9.00;5.20;;;;;;;11.89;100.00;100426.73;105361;1270;102758;-85
2024/04/06 04:54:33;;;;;;;11.60;5.10;;;;;;;11.88;100.00;100432.36;105507;1264;100339;-85
2024/04/06 04:57:18;;;;;;;7.40;4.40;;;;;;;11.89;100.00;100436.45;105502;1269;97979;-86
2024/04/06 05:00:04;;;;;;;6.90;4.60;;;;;;;11.90;100.00;100444.55;105589;1264;98062;-85
2024/04/06 05:02:50;;;;;;;7.80;4.70;;;;;;;11.92;100.00;100447.36;105586;1264;98447;-85
2024/04/06 05:05:36;;;;;;;9.10;5.00;;;;;;;11.93;100.00;100449.17;105592;1264;101382;-84
2024/04/06 05:08:21;;;;;;;12.10;5.90;;;;;;;11.95;100.00;100453.73;105557;1264;99272;-85
2024/04/06 05:11:07;;;;;;;9.70;6.00;;;;;;;11.99;100.00;100464.65;105316;1270;97997;-84
2024/04/06 05:13:53;;;;;;;11.10;5.60;;;;;;;12.00;100.00;100467.75;105375;1264;97996;-86
2024/04/06 05:16:38;;;;;;;10.30;6.00;;;;;;;11.99;100.00;100468.59;105448;1264;98113;-85
2024/04/06 05:19:25;;;;;;;12.10;6.50;;;;;;;12.00;100.00;100468.47;105629;1264;101334;-85
2024/04/06 05:22:11;;;;;;;9.30;6.40;;;;;;;12.03;100.00;100470.30;105533;1264;99148;-85
2024/04/06 05:24:57;;;;;;;9.50;6.30;;;;;;;12.05;100.00;100473.69;105627;1264;98100;-85
2024/04/06 05:27:42;;;;;;;9.60;6.10;;;;;;;12.09;100.00;100475.05;105421;1268;97915;-84
2024/04/06 05:30:28;;;;;;;8.70;5.10;;;;;;;12.13;100.00;100477.33;105285;1272;99578;-85
2024/04/06 05:33:16;;;;;;;12.80;5.50;;;;;;;12.17;100.00;100488.24;105200;1264;101393;-85
2024/04/06 05:36:04;;;;;;;9.90;5.20;;;;;;;12.20;100.00;100490.25;105375;1268;99299;-86
2024/04/06 05:38:50;;;;;;;9.60;5.30;;;;;;;12.23;100.00;100491.78;105558;1264;98421;-85
2024/04/06 05:41:36;;;;;;;11.00;5.00;;;;;;;12.25;100.00;100495.35;105386;1264;97979;-85
2024/04/06 05:44:23;;;;;;;5.30;4.30;;;;;;;12.29;100.00;100496.65;105285;1264;98511;-84
2024/04/06 05:47:10;;;;;;;9.20;4.70;;;;;;;12.34;100.00;100493.17;105416;1264;101329;-84
2024/04/06 05:49:55;;;;;;;9.60;4.00;;;;;;;12.40;100.00;100494.21;105358;1269;99916;-84
2024/04/06 05:52:41;;;;;;;7.50;4.70;;;;;;;12.47;100.00;100503.01;105270;1270;99563;-85
2024/04/06 05:55:26;;;;;;;10.40;4.60;;;;;;;12.53;100.00;100509.54;105384;1270;98104;-84
2024/04/06 05:58:12;;;;;;;6.60;4.10;;;;;;;12.58;100.00;100509.20;105291;1264;98459;-85
2024/04/06 06:00:58;;;;;;;8.90;5.10;;;;;;;12.65;100.00;100512.28;105505;1264;101397;-84
2024/04/06 06:03:44;;;;;;;7.70;4.30;;;;;;;12.73;100.00;100515.61;105446;1269;100178;-85
2024/04/06 06:06:29;;;;;;;9.50;5.30;;;;;;;12.81;100.00;100520.27;105372;1270;98042;-85
2024/04/06 06:09:16;;;;;;;12.30;6.00;;;;;;;12.88;100.00;100526.53;105374;1264;98875;-85
2024/04/06 06:12:02;;;;;;;8.00;4.60;;;;;;;12.93;100.00;100531.54;105416;1264;97988;-85
2024/04/06 06:14:47;;;;;;;11.90;4.60;;;;;;;12.98;100.00;100534.79;105391;1267;101933;-85
2024/04/06 06:17:33;;;;;;;8.80;5.30;;;;;;;13.04;100.00;100532.67;105654;1270;100448;-84
2024/04/06 06:20:19;;;;;;;7.30;4.70;;;;;;;13.12;100.00;100535.80;105626;1268;106377;-85
2024/04/06 06:23:05;;;;;;;8.40;4.80;;;;;;;13.21;100.00;100540.86;105569;1270;98027;-84
2024/04/06 06:25:51;;;;;;;7.60;4.60;;;;;;;13.32;100.00;100541.95;105371;1264;98469;-84
2024/04/06 06:28:36;;;;;;;7.90;5.20;;;;;;;13.42;100.00;100539.45;105459;1266;101374;-84
2024/04/06 06:31:22;;;;;;;25.20;16.60;;;;;;;13.51;100.00;100539.42;105350;1264;100276;-85
2024/04/06 06:34:09;;;;;;;43.00;26.70;;;;;;;13.61;100.00;100539.16;105253;1264;98014;-85
2024/04/06 06:36:55;;;;;;;12.10;7.40;;;;;;;13.72;100.00;100537.84;105233;1267;97991;-85
2024/04/06 06:39:40;;;;;;;17.50;15.60;;;;;;;13.80;100.00;100537.91;105584;1264;98131;-85
2024/04/06 06:42:26;;;;;;;16.30;13.00;;;;;;;13.90;100.00;100535.25;105527;1264;102583;-84
2024/04/06 06:45:12;;;;;;;11.10;9.80;;;;;;;14.02;100.00;100537.45;105390;1264;99183;-85
2024/04/06 06:47:58;;;;;;;6.10;5.50;;;;;;;14.12;100.00;100542.66;105289;1264;99024;-83
2024/04/06 06:50:44;;;;;;;11.10;7.10;;;;;;;14.20;100.00;100543.63;105216;1272;98485;-85
2024/04/06 06:53:29;;;;;;;6.90;4.60;;;;;;;14.25;100.00;100546.94;105361;1267;98046;-84
2024/04/06 06:56:15;;;;;;;11.50;4.10;;;;;;;14.34;100.00;100550.09;105476;1264;101379;-84
2024/04/06 06:59:02;;;;;;;5.60;3.20;;;;;;;14.46;100.00;100553.58;105319;1264;99812;-84
2024/04/06 07:01:47;;;;;;;5.90;3.30;;;;;;;14.55;100.00;100557.27;105283;1269;99516;-84
2024/04/06 07:04:35;;;;;;;11.90;3.60;;;;;;;14.55;100.00;100560.30;105495;1265;99423;-85
2024/04/06 07:07:22;;;;;;;8.40;2.70;;;;;;;14.60;100.00;100562.85;105518;1264;98095;-84
2024/04/06 07:10:07;;;;;;;10.90;3.40;;;;;;;14.64;100.00;100564.70;105663;1268;102701;-85
2024/04/06 07:12:53;;;;;;;9.10;3.40;;;;;;;14.65;100.00;100571.33;105197;1264;99333;-85
2024/04/06 07:15:39;;;;;;;8.50;3.60;;;;;;;14.68;100.00;100579.96;105175;1265;99485;-85
2024/04/06 07:18:24;;;;;;;9.90;3.90;;;;;;;14.72;100.00;100583.34;105453;1264;99537;-84
2024/04/06 07:21:14;;;;;;;14.70;3.30;;;;;;;14.76;100.00;100585.80;105313;1270;99258;-83
2024/04/06 07:24:00;;;;;;;8.60;3.40;;;;;;;14.79;100.00;100590.93;105366;1264;102726;-86
2024/04/06 07:26:46;;;;;;;12.30;3.40;;;;;;;14.82;100.00;100594.58;105417;1264;100407;-84
2024/04/06 07:29:31;;;;;;;6.60;4.00;;;;;;;14.80;100.00;100592.35;105422;1264;99349;-86
2024/04/06 07:32:17;;;;;;;12.50;5.30;;;;;;;14.77;100.00;100594.56;105288;1264;99461;-85
2024/04/06 07:35:07;;;;;;;12.30;4.30;;;;;;;14.76;100.00;100591.45;105486;1264;99331;-85
2024/04/06 07:37:52;;;;;;;10.70;3.60;;;;;;;14.77;100.00;100595.56;105496;1264;102699;-85
2024/04/06 07:40:38;;;;;;;8.80;3.60;;;;;;;14.78;100.00;100599.23;105593;1265;99324;-85
2024/04/06 07:43:23;;;;;;;8.10;3.70;;;;;;;14.78;100.00;100601.70;105416;1264;99389;-85
2024/04/06 07:46:09;;;;;;;7.10;2.90;;;;;;;14.79;100.00;100603.10;105509;1264;99330;-85
2024/04/06 07:48:54;;;;;;;8.30;3.40;;;;;;;14.85;100.00;100607.21;105444;1268;100955;-85
2024/04/06 07:51:42;;;;;;;8.90;2.90;;;;;;;14.92;100.00;100606.14;105328;1269;103627;-84
2024/04/06 07:54:27;;;;;;;9.80;3.10;;;;;;;15.00;100.00;100605.60;105480;1264;100523;-84
2024/04/06 07:57:13;;;;;;;13.80;3.90;;;;;;;15.06;100.00;100600.64;105303;1270;99424;-85
2024/04/06 08:00:01;;;;;;;8.90;3.10;;;;;;;15.11;100.00;100599.70;105546;1264;99385;-85
2024/04/06 08:02:46;;;;;;;12.20;4.10;;;;;;;15.13;100.00;100599.98;105516;1268;99428;-84
2024/04/06 08:05:33;;;;;;;7.60;3.20;;;;;;;15.15;100.00;100600.92;105718;1264;102912;-85
2024/04/06 08:08:19;;;;;;;12.30;4.90;;;;;;;15.16;100.00;100605.49;105829;1264;100877;-86
2024/04/06 08:11:04;;;;;;;14.20;4.20;;;;;;;15.15;100.00;100608.52;105528;1264;99303;-86
2024/04/06 08:13:50;;;;;;;12.90;3.30;;;;;;;15.16;100.00;100608.47;105211;1269;99454;-84
2024/04/06 08:16:40;;;;;;;8.00;3.50;;;;;;;15.22;100.00;100608.40;105491;1265;99318;-87
2024/04/06 08:19:25;;;;;;;9.90;2.70;;;;;;;15.26;100.00;100606.91;105436;1270;103973;-85
2024/04/06 08:22:11;;;;;;;11.70;3.40;;;;;;;15.29;100.00;100603.63;105557;1264;99964;-86
2024/04/06 08:24:59;;;;;;;9.10;2.80;;;;;;;15.33;100.00;100606.75;105417;1264;99288;-85
2024/04/06 08:27:48;;;;;;;9.10;3.50;;;;;;;15.38;100.00;100611.20;105297;1269;99311;-84
2024/04/06 08:30:36;;;;;;;;;;;;;;;15.44;100.00;100610.77;105428;1264;99288;-85
2024/04/06 08:33:21;;;;;;;8.00;3.00;;;;;;;15.46;100.00;100612.89;105325;1265;104482;-85
2024/04/06 08:36:09;;;;;;;9.80;2.80;;;;;;;15.48;100.00;100618.56;105256;1264;100610;-85
2024/04/06 08:38:54;;;;;;;8.90;2.70;;;;;;;15.52;100.00;100614.38;105298;1264;99454;-85
2024/04/06 08:41:40;;;;;;;8.80;2.70;;;;;;;15.57;100.00;100618.11;105470;1264;99917;-84
2024/04/06 08:44:40;;;;;;;10.60;3.40;;;;;;;15.61;100.00;100614.64;105415;1264;99861;-85
2024/04/06 08:47:30;;;;;;;11.30;3.30;;;;;;;15.68;100.00;100616.02;105327;1264;103424;-85
2024/04/06 08:50:18;;;;;;;13.90;3.00;;;;;;;15.73;100.00;100614.23;105303;1264;99354;-85
2024/04/06 08:53:08;;;;;;;11.30;3.10;;;;;;;15.79;100.00;100613.42;105313;1265;107157;-85
2024/04/06 08:55:55;;;;;;;7.20;2.50;;;;;;;15.84;100.00;100608.81;105436;1269;99399;-86
2024/04/06 08:58:41;;;;;;;12.00;3.50;;;;;;;15.89;100.00;100612.02;105479;1264;99813;-86
2024/04/06 09:01:27;;;;;;;7.10;2.80;;;;;;;15.91;100.00;100614.41;105360;1264;104308;-85
2024/04/06 09:04:13;;;;;;;7.10;3.00;;;;;;;15.93;100.00;100612.55;105427;1270;99225;-85
2024/04/06 09:07:01;;;;;;;11.70;3.10;;;;;;;15.96;100.00;100612.27;105412;1264;99317;-84
2024/04/06 09:09:53;;;;;;;11.50;3.30;;;;;;;16.05;100.00;100609.17;105311;1270;100616;-85
2024/04/06 09:12:38;;;;;;;9.50;2.80;;;;;;;16.14;100.00;100607.30;105513;1269;99331;-84
2024/04/06 09:15:24;;;;;;;9.70;2.90;;;;;;;16.17;99.84;100603.85;105371;1264;102802;-84
2024/04/06 09:18:09;;;;;;;7.60;2.70;;;;;;;16.16;99.81;100606.66;105473;1264;100499;-84
2024/04/06 09:20:55;;;;;;;8.30;2.50;;;;;;;16.18;99.62;100611.42;105369;1267;99343;-84
2024/04/06 09:23:40;;;;;;;6.90;2.40;;;;;;;16.22;99.03;100612.66;105490;1264;99396;-84
2024/04/06 09:26:31;;;;;;;10.00;3.30;;;;;;;16.23;98.37;100616.98;105717;1265;99994;-84
2024/04/06 09:29:16;;;;;;;;;;;;;;;16.24;98.16;100617.89;105686;1264;104511;-84
2024/04/06 09:32:04;;;;;;;8.90;2.80;;;;;;;16.24;97.57;100618.30;105422;1263;100012;-83
2024/04/06 09:34:51;;;;;;;10.10;2.50;;;;;;;16.25;97.21;100617.05;105167;1264;99295;-83
2024/04/06 09:37:39;;;;;;;10.90;3.20;;;;;;;16.27;97.28;100610.90;105560;1264;99339;-84
2024/04/06 09:40:25;;;;;;;10.60;3.30;;;;;;;16.35;97.36;100613.66;105606;1264;99794;-84
2024/04/06 09:43:12;;;;;;;11.80;2.70;;;;;;;16.37;96.47;100615.04;105497;1268;104035;-84
2024/04/06 09:45:58;;;;;;;9.60;2.10;;;;;;;16.40;96.03;100618.21;105514;1270;100333;-86
2024/04/06 09:48:46;;;;;;;11.90;2.80;;;;;;;16.44;95.73;100621.00;105468;1264;99919;-86
2024/04/06 09:51:31;;;;;;;10.30;2.90;;;;;;;16.50;95.88;100619.80;105397;1265;99498;-82
2024/04/06 09:54:18;;;;;;;7.40;2.20;;;;;;;16.56;95.14;100623.11;105591;1264;100117;-82
2024/04/06 09:57:06;;;;;;;9.70;2.50;;;;;;;16.58;94.50;100626.98;105466;1265;102795;-84
2024/04/06 10:00:12;;;;;;;11.40;3.20;;;;;;;16.57;93.56;100626.71;105457;1264;100969;-84
2024/04/06 10:03:00;;;;;;;8.30;2.10;;;;;;;16.56;93.06;100627.06;107834;1264;99013;-85
2024/04/06 10:05:46;;;;;;;9.10;2.30;;;;;;;16.57;92.38;100630.88;105517;1269;99380;-84
2024/04/06 10:08:31;;;;;;;9.50;2.50;;;;;;;16.55;91.75;100631.36;105502;1263;99873;-84
2024/04/06 10:11:21;;;;;;;10.50;2.30;;;;;;;16.54;92.25;100630.50;105393;1264;111979;-84
2024/04/06 10:14:06;;;;;;;6.70;2.00;;;;;;;16.53;92.60;100636.61;105459;1278;99310;-84
2024/04/06 10:16:52;;;;;;;9.00;2.20;;;;;;;16.50;92.74;100641.84;105292;1264;99278;-84
2024/04/06 10:19:43;;;;;;;8.80;2.10;;;;;;;16.45;92.62;100639.88;105579;1264;99351;-83
2024/04/06 10:22:31;;;;;;;8.40;2.60;;;;;;;16.41;92.67;100644.95;105412;1263;99152;-84
2024/04/06 10:25:26;;;;;;;8.00;2.90;;;;;;;16.44;93.65;100644.13;105454;1265;102731;-83
2024/04/06 10:28:12;;;;;;;9.90;2.90;;;;;;;16.50;93.45;100642.14;105536;1264;100160;-83
2024/04/06 10:30:58;;;;;;;7.20;2.60;;;;;;;16.58;93.82;100641.02;105584;1264;99861;-84
2024/04/06 10:33:44;;;;;;;6.40;2.20;;;;;;;16.69;94.11;100642.48;105421;1265;97942;-85
2024/04/06 10:36:30;;;;;;;7.60;2.90;;;;;;;16.83;94.37;100646.23;105512;1264;99124;-84
2024/04/06 10:39:16;;;;;;;11.80;3.10;;;;;;;16.98;93.21;100639.30;105431;1264;102737;-85
2024/04/06 10:42:04;;;;;;;7.20;2.60;;;;;;;17.09;92.77;100643.17;105314;1264;100396;-84
2024/04/06 10:44:50;;;;;;;10.30;2.50;;;;;;;17.14;91.45;100642.60;105756;1267;99426;-84
2024/04/06 10:47:35;;;;;;;10.70;3.00;;;;;;;17.20;91.20;100641.35;105519;1264;99243;-84
2024/04/06 10:50:21;;;;;;;10.10;3.10;;;;;;;17.27;91.08;100642.20;105690;1264;99776;-83
2024/04/06 10:53:08;;;;;;;13.10;2.20;;;;;;;17.34;90.64;100639.69;105492;1270;103486;-84
2024/04/06 10:55:53;;;;;;;9.80;2.40;;;;;;;17.41;89.72;100642.33;105527;1264;99265;-84
2024/04/06 10:58:39;;;;;;;8.40;2.10;;;;;;;17.49;88.89;100639.34;105415;1270;99338;-84
2024/04/06 11:01:26;;;;;;;7.50;2.60;;;;;;;17.60;89.74;100640.80;105460;1264;100578;-84
2024/04/06 11:04:12;;;;;;;10.00;2.20;;;;;;;17.70;88.80;100647.31;105402;1264;100950;-83
2024/04/06 11:06:58;;;;;;;6.80;2.20;;;;;;;17.66;87.10;100650.17;105442;1270;103909;-84
2024/04/06 11:09:44;;;;;;;7.20;2.10;;;;;;;17.65;87.54;100650.42;105327;1264;100299;-84
2024/04/06 11:12:30;;;;;;;11.80;2.60;;;;;;;17.67;86.27;100650.20;105318;1264;99870;-84
2024/04/06 11:15:16;;;;;;;6.70;2.90;;;;;;;17.69;85.63;100649.49;105355;1268;99335;-83
2024/04/06 11:18:02;;;;;;;8.40;2.20;;;;;;;17.70;85.85;100650.56;105429;1264;99749;-84
2024/04/06 11:20:48;;;;;;;10.30;2.80;;;;;;;17.74;85.12;100649.23;105458;1269;103825;-84
2024/04/06 11:23:33;;;;;;;7.90;3.10;;;;;;;17.82;85.74;100646.52;105514;1264;100636;-83
2024/04/06 11:26:20;;;;;;;10.30;2.50;;;;;;;17.92;85.89;100654.30;105437;1263;99457;-83
2024/04/06 11:29:07;;;;;;;17.10;3.50;;;;;;;18.01;84.42;100656.45;105354;1269;99360;-84
2024/04/06 11:31:53;;;;;;;9.70;2.70;;;;;;;18.06;83.57;100660.90;105377;1264;99212;-84
2024/04/06 11:34:39;;;;;;;5.70;2.00;;;;;;;18.08;83.40;100666.41;105344;1265;102831;-84
2024/04/06 11:37:24;;;;;;;15.70;2.50;;;;;;;18.08;82.07;100669.55;105454;1264;99347;-85
2024/04/06 11:40:10;;;;;;;12.20;2.80;;;;;;;18.12;83.28;100663.80;105481;1268;99260;-85
2024/04/06 11:42:55;;;;;;;8.80;2.10;;;;;;;18.20;83.30;100670.98;105546;1263;99336;-83
2024/04/06 11:45:43;;;;;;;12.00;2.90;;;;;;;18.24;82.85;100672.17;105352;1264;99810;-87
2024/04/06 11:48:31;;;;;;;7.50;2.70;;;;;;;18.30;82.86;100666.08;105342;1264;104037;-85
2024/04/06 11:51:17;;;;;;;7.50;2.40;;;;;;;18.35;82.31;100668.04;105404;1264;99406;-84
2024/04/06 11:54:03;;;;;;;9.20;2.20;;;;;;;18.35;81.19;100665.12;105455;1265;99363;-85
2024/04/06 11:56:48;;;;;;;9.60;2.10;;;;;;;18.35;80.46;100667.46;105307;1270;99418;-84
2024/04/06 11:59:34;;;;;;;9.70;2.40;;;;;;;18.32;79.29;100670.80;105447;1264;99401;-84
2024/04/06 12:02:20;;;;;;;9.10;2.60;;;;;;;18.31;80.08;100669.70;105398;1269;104986;-84
2024/04/06 12:05:09;;;;;;;8.10;2.00;;;;;;;18.29;79.93;100672.89;105299;1264;99995;-84
2024/04/06 12:07:58;;;;;;;8.00;2.30;;;;;;;18.26;79.42;100675.33;105412;1270;99345;-84
2024/04/06 12:10:47;;;;;;;8.00;2.20;;;;;;;18.27;79.06;100673.61;105330;1270;99321;-85
2024/04/06 12:13:35;;;;;;;7.00;2.30;;;;;;;18.32;79.38;100678.07;105286;1265;99858;-84
2024/04/06 12:16:28;;;;;;;7.90;2.60;;;;;;;18.35;79.40;100676.47;105309;1265;104141;-84
2024/04/06 12:19:15;;;;;;;9.70;3.00;;;;;;;18.41;79.14;100676.98;105517;1268;99312;-84
2024/04/06 12:22:00;;;;;;;7.30;2.10;;;;;;;18.51;78.52;100678.64;105317;1269;99371;-84
2024/04/06 12:24:46;;;;;;;11.30;2.40;;;;;;;18.60;78.52;100674.73;105372;1267;99335;-85
2024/04/06 12:27:34;;;;;;;11.00;3.20;;;;;;;18.70;77.62;100676.73;105480;1264;99251;-85
2024/04/06 12:30:21;;;;;;;8.70;2.20;;;;;;;18.75;76.24;100670.08;105331;1264;103358;-84
2024/04/06 12:33:06;;;;;;;14.40;2.50;;;;;;;18.81;76.35;100677.10;105288;1265;99519;-84